Time;durP1;ratioP1;P1;durP2;ratioP2;P2;SDS_P1;SDS_P2;PMS_P1;PMS_P2;Temp;Humidity;BMP_temperature;BMP_pressure;BME280_temperature;BME280_humidity;BME280_pressure;Samples;Min_cycle;Max_cycle;Signal;HPM_P1;HPM_P2
2023/03/08 00:02:55;;;;;;;34.70;19.85;;;;;;;;;;10349176;28;20426;-84
2023/03/08 00:07:57;;;;;;;35.20;19.17;;;;;;;;;;10357436;28;20511;-83
2023/03/08 00:13:00;;;;;;;31.75;19.88;;;;;;;;;;10350198;28;20434;-83
2023/03/08 00:18:02;;;;;;;37.15;20.52;;;;;;;;;;10359648;28;21043;-83
2023/03/08 00:23:04;;;;;;;33.80;20.90;;;;;;;;;;10355814;28;20434;-84
2023/03/08 00:28:07;;;;;;;36.75;20.38;;;;;;;;;;10347751;28;20431;-84
2023/03/08 00:33:09;;;;;;;33.15;20.48;;;;;;;;;;10339999;28;20433;-83
2023/03/08 00:38:11;;;;;;;37.78;20.85;;;;;;;;;;10360410;28;20419;-83
2023/03/08 00:43:14;;;;;;;38.22;22.55;;;;;;;;;;10359238;28;20780;-84
2023/03/08 00:48:16;;;;;;;42.67;24.80;;;;;;;;;;10354437;28;20433;-83
2023/03/08 00:53:18;;;;;;;39.77;23.67;;;;;;;;;;10355713;28;20502;-83
2023/03/08 00:58:22;;;;;;;41.95;25.08;;;;;;;;;;10350052;28;20511;-83
2023/03/08 01:03:24;;;;;;;40.80;22.90;;;;;;;;;;10360062;28;20439;-83
2023/03/08 01:08:27;;;;;;;42.10;22.87;;;;;;;;;;10355573;28;20432;-84
2023/03/08 01:13:32;;;;;;;39.40;22.20;;;;;;;;;;10355726;28;20427;-83
2023/03/08 01:18:34;;;;;;;38.50;22.47;;;;;;;;;;10339518;28;20410;-84
2023/03/08 01:23:35;;;;;;;36.97;21.98;;;;;;;;;;10339862;28;20504;-84
2023/03/08 01:28:39;;;;;;;35.92;21.27;;;;;;;;;;10345009;28;20432;-83
2023/03/08 01:33:40;;;;;;;40.22;21.88;;;;;;;;;;10351823;28;20439;-83
2023/03/08 01:38:43;;;;;;;35.90;21.38;;;;;;;;;;10351872;28;20437;-84
2023/03/08 01:43:47;;;;;;;38.40;21.95;;;;;;;;;;10346051;28;20423;-83
2023/03/08 01:48:53;;;;;;;36.85;22.05;;;;;;;;;;10356326;28;21007;-83
2023/03/08 01:53:56;;;;;;;38.30;22.03;;;;;;;;;;10358250;28;20789;-83
2023/03/08 01:59:00;;;;;;;38.60;22.40;;;;;;;;;;10352705;28;20873;-84
2023/03/08 02:04:03;;;;;;;35.07;20.73;;;;;;;;;;10341575;28;20453;-83
2023/03/08 02:09:06;;;;;;;36.10;21.13;;;;;;;;;;10353860;28;20468;-84
2023/03/08 02:14:09;;;;;;;38.10;21.27;;;;;;;;;;10342592;28;20456;-83
2023/03/08 02:19:16;;;;;;;36.15;21.35;;;;;;;;;;10355620;28;20441;-83
2023/03/08 02:24:21;;;;;;;35.83;21.25;;;;;;;;;;10348682;28;20936;-83
2023/03/08 02:29:23;;;;;;;35.53;21.45;;;;;;;;;;10352859;28;20470;-83
2023/03/08 02:34:25;;;;;;;37.47;21.83;;;;;;;;;;10351895;28;20757;-81
2023/03/08 02:39:28;;;;;;;37.17;21.97;;;;;;;;;;10355114;28;20467;-83
2023/03/08 02:44:30;;;;;;;36.45;22.10;;;;;;;;;;10356155;28;20850;-83
2023/03/08 02:49:31;;;;;;;35.57;21.03;;;;;;;;;;10348444;28;20439;-84
2023/03/08 02:54:35;;;;;;;36.72;21.65;;;;;;;;;;10351203;28;20525;-83
2023/03/08 02:59:37;;;;;;;37.47;22.20;;;;;;;;;;10341231;28;20413;-83
2023/03/08 03:04:39;;;;;;;34.83;21.35;;;;;;;;;;10352714;28;20438;-83
2023/03/08 03:09:42;;;;;;;37.50;21.90;;;;;;;;;;10351284;28;20921;-83
2023/03/08 03:14:44;;;;;;;36.50;21.40;;;;;;;;;;10347295;28;20479;-83
2023/03/08 03:19:46;;;;;;;37.90;22.98;;;;;;;;;;10348698;28;20841;-83
2023/03/08 03:24:51;;;;;;;38.30;22.05;;;;;;;;;;10351618;28;20445;-83
2023/03/08 03:29:53;;;;;;;40.77;23.50;;;;;;;;;;10355032;28;20772;-82
2023/03/08 03:34:55;;;;;;;37.25;22.70;;;;;;;;;;10349122;28;20403;-83
2023/03/08 03:39:58;;;;;;;41.10;23.98;;;;;;;;;;10348916;28;20792;-82
2023/03/08 03:44:59;;;;;;;41.90;23.42;;;;;;;;;;10341475;28;20497;-83
2023/03/08 03:50:01;;;;;;;39.17;23.05;;;;;;;;;;10353505;28;20403;-83
2023/03/08 03:55:06;;;;;;;39.78;23.60;;;;;;;;;;10354021;28;20501;-82
2023/03/08 04:00:10;;;;;;;38.17;22.60;;;;;;;;;;10352294;28;20440;-83
2023/03/08 04:05:12;;;;;;;41.55;23.45;;;;;;;;;;10347508;28;20486;-83
2023/03/08 04:10:16;;;;;;;38.60;22.70;;;;;;;;;;10351200;28;20440;-83
2023/03/08 04:15:18;;;;;;;39.67;22.77;;;;;;;;;;10334672;28;20423;-82
2023/03/08 04:20:20;;;;;;;37.83;22.70;;;;;;;;;;10354349;28;20505;-83
2023/03/08 04:25:23;;;;;;;40.65;21.45;;;;;;;;;;10345958;28;20419;-83
2023/03/08 04:30:25;;;;;;;37.85;22.10;;;;;;;;;;10340410;28;20418;-83
2023/03/08 04:35:27;;;;;;;36.30;20.60;;;;;;;;;;10352603;28;20420;-83
2023/03/08 04:40:30;;;;;;;34.13;20.20;;;;;;;;;;10351539;28;20423;-83
2023/03/08 04:45:32;;;;;;;34.30;19.73;;;;;;;;;;10337630;28;20519;-83
2023/03/08 04:50:34;;;;;;;35.25;20.02;;;;;;;;;;10350629;28;20929;-83
2023/03/08 04:55:38;;;;;;;32.80;19.17;;;;;;;;;;10354468;28;20996;-83
2023/03/08 05:00:39;;;;;;;35.63;19.92;;;;;;;;;;10356453;28;20921;-82
2023/03/08 05:05:45;;;;;;;36.28;19.20;;;;;;;;;;10357794;28;20915;-83
2023/03/08 05:10:50;;;;;;;36.33;19.80;;;;;;;;;;10350742;28;20422;-83
2023/03/08 05:15:51;;;;;;;33.67;19.52;;;;;;;;;;10348799;28;20499;-82
2023/03/08 05:20:55;;;;;;;35.67;19.00;;;;;;;;;;10353931;28;20909;-83
2023/03/08 05:26:00;;;;;;;34.90;19.00;;;;;;;;;;10356580;28;20429;-82
2023/03/08 05:31:02;;;;;;;33.13;19.35;;;;;;;;;;10351143;28;20440;-83
2023/03/08 05:36:06;;;;;;;33.97;19.00;;;;;;;;;;10352810;28;20408;-83
2023/03/08 05:41:12;;;;;;;35.30;19.98;;;;;;;;;;10362958;28;20884;-82
2023/03/08 05:46:16;;;;;;;34.43;19.30;;;;;;;;;;10350620;28;20453;-83
2023/03/08 05:51:18;;;;;;;32.97;18.70;;;;;;;;;;10351994;28;20548;-82
2023/03/08 05:56:23;;;;;;;35.28;18.67;;;;;;;;;;10347363;28;20420;-82
2023/03/08 06:01:27;;;;;;;31.30;18.23;;;;;;;;;;10349120;28;20771;-88
2023/03/08 06:06:29;;;;;;;37.57;20.10;;;;;;;;;;10354167;28;20428;-83
2023/03/08 06:11:32;;;;;;;42.28;21.50;;;;;;;;;;10348989;28;20846;-83
2023/03/08 06:16:34;;;;;;;37.23;19.63;;;;;;;;;;10358082;28;20411;-83
2023/03/08 06:21:35;;;;;;;34.47;19.10;;;;;;;;;;10359674;28;20430;-83
2023/03/08 06:26:39;;;;;;;32.50;18.80;;;;;;;;;;10362752;28;20896;-84
2023/03/08 06:31:41;;;;;;;32.17;18.73;;;;;;;;;;10361846;28;20403;-83
2023/03/08 06:36:43;;;;;;;34.13;19.98;;;;;;;;;;10355685;28;20826;-83
2023/03/08 06:41:46;;;;;;;38.58;21.50;;;;;;;;;;10360374;28;20411;-83
2023/03/08 06:46:48;;;;;;;37.20;20.80;;;;;;;;;;10336847;23;20436;-84
2023/03/08 06:51:50;;;;;;;33.53;19.90;;;;;;;;;;10322997;28;20413;-83
2023/03/08 06:56:53;;;;;;;38.25;20.50;;;;;;;;;;10326262;28;20445;-83
2023/03/08 07:01:56;;;;;;;39.03;22.05;;;;;;;;;;10325489;28;20855;-83
2023/03/08 07:06:58;;;;;;;43.47;22.52;;;;;;;;;;10310282;28;20934;-83
2023/03/08 07:12:01;;;;;;;36.55;20.90;;;;;;;;;;10323745;28;20417;-83
2023/03/08 07:17:03;;;;;;;37.55;20.25;;;;;;;;;;10322583;28;20415;-83
2023/03/08 07:22:05;;;;;;;38.92;20.55;;;;;;;;;;10324417;28;20439;-83
2023/03/08 07:27:08;;;;;;;35.08;19.40;;;;;;;;;;10324054;28;20433;-83
2023/03/08 07:32:10;;;;;;;31.17;18.87;;;;;;;;;;10324872;28;20488;-83
2023/03/08 07:37:12;;;;;;;34.22;18.83;;;;;;;;;;10325113;28;20774;-83
2023/03/08 07:42:16;;;;;;;33.78;18.73;;;;;;;;;;10321735;28;20420;-84
2023/03/08 07:47:18;;;;;;;33.77;18.50;;;;;;;;;;10322835;28;20538;-84
2023/03/08 07:52:20;;;;;;;34.87;18.80;;;;;;;;;;10325237;28;20448;-84
2023/03/08 07:57:24;;;;;;;40.92;22.65;;;;;;;;;;10323113;28;20774;-83
2023/03/08 08:02:26;;;;;;;30.95;18.05;;;;;;;;;;10324312;28;20527;-83
2023/03/08 08:07:28;;;;;;;30.77;17.90;;;;;;;;;;10325630;28;20437;-83
2023/03/08 08:12:31;;;;;;;32.28;18.98;;;;;;;;;;10322491;28;20896;-83
2023/03/08 08:17:33;;;;;;;33.87;18.70;;;;;;;;;;10322710;28;21219;-83
2023/03/08 08:22:36;;;;;;;30.50;15.73;;;;;;;;;;10326813;28;20408;-83
2023/03/08 08:27:39;;;;;;;28.30;16.05;;;;;;;;;;10330453;28;20428;-83
2023/03/08 08:32:41;;;;;;;24.53;15.47;;;;;;;;;;10333821;28;20410;-83
2023/03/08 08:37:43;;;;;;;26.00;14.87;;;;;;;;;;10332986;28;21061;-83
2023/03/08 08:42:46;;;;;;;27.38;15.52;;;;;;;;;;10332644;28;20424;-83
2023/03/08 08:47:48;;;;;;;25.17;14.80;;;;;;;;;;10332041;28;20518;-84
2023/03/08 08:52:49;;;;;;;27.17;14.63;;;;;;;;;;10332043;28;20851;-82
2023/03/08 08:57:53;;;;;;;23.17;14.02;;;;;;;;;;10329259;28;21085;-84
2023/03/08 09:02:54;;;;;;;22.35;13.15;;;;;;;;;;10332301;28;20740;-83
2023/03/08 09:07:58;;;;;;;23.65;13.18;;;;;;;;;;10332102;28;21241;-83
2023/03/08 09:13:01;;;;;;;24.67;13.48;;;;;;;;;;10328849;28;20965;-83
2023/03/08 09:18:04;;;;;;;21.00;13.10;;;;;;;;;;10331478;28;20430;-84
2023/03/08 09:23:07;;;;;;;22.88;12.68;;;;;;;;;;10331520;28;20416;-83
2023/03/08 09:28:11;;;;;;;26.02;14.18;;;;;;;;;;10328733;28;20516;-83
2023/03/08 09:33:13;;;;;;;24.95;13.30;;;;;;;;;;10330457;28;20499;-84
2023/03/08 09:38:15;;;;;;;25.58;13.50;;;;;;;;;;10328745;28;20835;-84
2023/03/08 09:43:31;;;;;;;24.90;13.20;;;;;;;;;;10326208;28;20547;-83
2023/03/08 09:48:34;;;;;;;22.90;13.63;;;;;;;;;;10329574;28;20439;-84
2023/03/08 09:53:41;;;;;;;23.83;13.30;;;;;;;;;;10341097;28;20454;-84
2023/03/08 09:58:50;;;;;;;24.25;13.52;;;;;;;;;;10325615;28;20769;-84
2023/03/08 10:04:12;;;;;;;23.25;11.80;;;;;;;;;;10327613;28;20497;-84
2023/03/08 10:09:24;;;;;;;20.48;12.18;;;;;;;;;;10327109;28;20432;-84
2023/03/08 10:14:32;;;;;;;22.20;13.50;;;;;;;;;;10329898;28;20413;-84
2023/03/08 10:19:38;;;;;;;22.75;13.20;;;;;;;;;;10325539;28;20409;-84
2023/03/08 10:24:45;;;;;;;22.67;12.77;;;;;;;;;;10327514;28;20419;-84
2023/03/08 10:29:53;;;;;;;23.20;13.52;;;;;;;;;;10323422;28;20437;-85
2023/03/08 10:35:02;;;;;;;23.45;13.98;;;;;;;;;;10328598;28;20504;-84
2023/03/08 10:40:08;;;;;;;24.30;13.93;;;;;;;;;;10324821;28;20891;-85
2023/03/08 10:45:19;;;;;;;21.77;12.77;;;;;;;;;;10327030;28;20416;-84
2023/03/08 10:50:23;;;;;;;20.40;12.47;;;;;;;;;;10327069;28;20436;-85
2023/03/08 10:55:30;;;;;;;22.80;13.70;;;;;;;;;;10326169;28;20745;-83
2023/03/08 11:00:35;;;;;;;22.70;13.43;;;;;;;;;;10327616;28;20421;-84
2023/03/08 11:05:38;;;;;;;23.52;14.38;;;;;;;;;;10327568;28;20413;-84
2023/03/08 11:10:40;;;;;;;19.48;12.73;;;;;;;;;;10326135;28;20429;-84
2023/03/08 11:15:48;;;;;;;21.58;13.18;;;;;;;;;;10324695;28;20413;-84
2023/03/08 11:20:54;;;;;;;20.98;13.10;;;;;;;;;;10326267;28;20744;-85
2023/03/08 11:26:04;;;;;;;24.67;13.40;;;;;;;;;;10325345;28;20432;-84
2023/03/08 11:31:28;;;;;;;22.80;13.18;;;;;;;;;;10325504;28;20515;-84
2023/03/08 11:36:36;;;;;;;22.47;13.40;;;;;;;;;;10324115;28;20417;-84
2023/03/08 11:41:46;;;;;;;24.02;13.57;;;;;;;;;;10325212;28;20503;-84
2023/03/08 11:47:03;;;;;;;22.45;13.23;;;;;;;;;;10325239;28;21444;-84
2023/03/08 11:52:19;;;;;;;26.30;16.88;;;;;;;;;;10325145;28;20503;-85
2023/03/08 11:57:23;;;;;;;24.70;13.48;;;;;;;;;;10326753;28;20644;-85
2023/03/08 12:02:29;;;;;;;21.95;12.75;;;;;;;;;;10335149;28;20408;-85
2023/03/08 12:07:37;;;;;;;26.30;13.32;;;;;;;;;;10333952;28;21082;-84
2023/03/08 12:12:43;;;;;;;25.33;13.50;;;;;;;;;;10332498;28;20949;-84
2023/03/08 12:17:53;;;;;;;18.27;11.50;;;;;;;;;;10332899;28;20412;-84
2023/03/08 12:22:59;;;;;;;20.42;11.70;;;;;;;;;;10329305;28;20408;-84
2023/03/08 12:28:06;;;;;;;19.75;11.00;;;;;;;;;;10332679;28;20527;-84
2023/03/08 12:33:13;;;;;;;23.47;12.23;;;;;;;;;;10329140;28;20467;-85
2023/03/08 12:38:30;;;;;;;21.15;12.00;;;;;;;;;;10323602;28;20424;-84
2023/03/08 12:43:34;;;;;;;22.67;13.45;;;;;;;;;;10320973;28;21150;-83
2023/03/08 12:48:46;;;;;;;23.35;12.75;;;;;;;;;;10324004;28;20868;-84
2023/03/08 12:53:58;;;;;;;24.85;14.48;;;;;;;;;;10322215;28;20409;-84
2023/03/08 12:59:02;;;;;;;21.00;12.65;;;;;;;;;;10323539;28;20495;-81
2023/03/08 13:04:25;;;;;;;20.25;11.68;;;;;;;;;;10321070;28;20448;-83
2023/03/08 13:09:30;;;;;;;20.97;11.00;;;;;;;;;;10330454;28;20472;-81
2023/03/08 13:14:39;;;;;;;21.38;11.63;;;;;;;;;;10329587;28;20431;-82
2023/03/08 13:19:43;;;;;;;18.92;11.05;;;;;;;;;;10330654;28;20770;-80
2023/03/08 13:24:51;;;;;;;16.58;11.00;;;;;;;;;;10330297;28;20417;-82
2023/03/08 13:29:53;;;;;;;22.20;12.27;;;;;;;;;;10328274;28;20439;-81
2023/03/08 13:35:01;;;;;;;20.38;12.63;;;;;;;;;;10329117;28;20416;-82
2023/03/08 13:40:06;;;;;;;26.25;12.77;;;;;;;;;;10328906;28;20794;-82
2023/03/08 13:45:10;;;;;;;16.98;9.73;;;;;;;;;;10328315;28;20477;-82
2023/03/08 13:50:20;;;;;;;17.70;10.50;;;;;;;;;;10324418;28;20436;-82
2023/03/08 13:55:29;;;;;;;18.80;10.65;;;;;;;;;;10327830;28;20759;-82
2023/03/08 14:00:33;;;;;;;16.63;10.13;;;;;;;;;;10328196;28;20443;-82
2023/03/08 14:05:42;;;;;;;19.27;11.38;;;;;;;;;;10327307;28;20771;-84
2023/03/08 14:10:48;;;;;;;18.63;10.43;;;;;;;;;;10326002;28;20491;-84
2023/03/08 14:15:52;;;;;;;19.58;11.95;;;;;;;;;;10322893;28;20922;-84
2023/03/08 14:21:07;;;;;;;19.73;11.50;;;;;;;;;;10324972;28;20495;-84
2023/03/08 14:26:25;;;;;;;19.23;11.80;;;;;;;;;;10326330;28;21413;-83
2023/03/08 14:31:29;;;;;;;18.75;11.98;;;;;;;;;;10327200;28;20429;-83
2023/03/08 14:36:33;;;;;;;22.33;13.50;;;;;;;;;;10326725;28;20756;-83
2023/03/08 14:41:37;;;;;;;19.87;12.10;;;;;;;;;;10323591;28;20843;-83
2023/03/08 14:46:38;;;;;;;21.25;12.77;;;;;;;;;;10323463;28;20409;-83
2023/03/08 14:51:43;;;;;;;18.03;11.73;;;;;;;;;;10325710;28;20428;-83
2023/03/08 14:56:45;;;;;;;17.97;10.33;;;;;;;;;;10319604;28;20419;-83
2023/03/08 15:01:47;;;;;;;21.63;10.60;;;;;;;;;;10323472;28;20436;-83
2023/03/08 15:06:52;;;;;;;19.02;11.63;;;;;;;;;;10326597;28;20415;-83
2023/03/08 15:11:57;;;;;;;16.70;11.10;;;;;;;;;;10325359;28;20429;-83
2023/03/08 15:16:59;;;;;;;23.38;11.50;;;;;;;;;;10324141;28;20752;-83
2023/03/08 15:22:04;;;;;;;19.83;12.18;;;;;;;;;;10325452;28;20488;-89
2023/03/08 15:27:06;;;;;;;21.73;11.98;;;;;;;;;;10324394;28;20444;-83
2023/03/08 15:32:08;;;;;;;17.80;11.18;;;;;;;;;;10326066;28;20432;-83
2023/03/08 15:37:14;;;;;;;20.15;11.25;;;;;;;;;;10324330;28;20492;-83
2023/03/08 15:42:15;;;;;;;22.50;11.50;;;;;;;;;;10326330;28;20496;-82
2023/03/08 15:47:17;;;;;;;20.42;10.90;;;;;;;;;;10325915;28;20464;-83
2023/03/08 15:52:20;;;;;;;20.50;10.85;;;;;;;;;;10325805;28;20413;-83
2023/03/08 15:57:22;;;;;;;23.20;13.40;;;;;;;;;;10321815;28;20786;-83
2023/03/08 16:02:24;;;;;;;35.13;24.98;;;;;;;;;;10320211;28;20427;-83
2023/03/08 16:07:28;;;;;;;29.15;19.63;;;;;;;;;;10317558;28;20460;-83
2023/03/08 16:12:30;;;;;;;26.73;16.73;;;;;;;;;;10310457;28;20420;-83
2023/03/08 16:17:32;;;;;;;28.43;17.00;;;;;;;;;;10313923;28;20425;-84
2023/03/08 16:22:35;;;;;;;28.63;16.63;;;;;;;;;;10311372;28;20512;-83
2023/03/08 16:27:37;;;;;;;25.42;16.27;;;;;;;;;;10316480;28;20850;-83
2023/03/08 16:32:39;;;;;;;25.98;15.65;;;;;;;;;;10314316;28;20823;-83
2023/03/08 16:37:42;;;;;;;23.55;15.10;;;;;;;;;;10317303;28;20420;-84
2023/03/08 16:42:45;;;;;;;25.15;15.85;;;;;;;;;;10317031;28;20413;-84
2023/03/08 16:47:47;;;;;;;26.55;16.10;;;;;;;;;;10320356;28;20429;-84
2023/03/08 16:52:53;;;;;;;23.73;15.20;;;;;;;;;;10322430;28;20471;-84
2023/03/08 16:57:55;;;;;;;23.88;15.70;;;;;;;;;;10321788;28;20409;-83
2023/03/08 17:02:57;;;;;;;23.25;14.55;;;;;;;;;;10318957;28;20417;-84
2023/03/08 17:08:00;;;;;;;32.37;19.27;;;;;;;;;;10319142;28;20529;-84
2023/03/08 17:13:02;;;;;;;27.20;16.63;;;;;;;;;;10317601;28;20434;-84
2023/03/08 17:18:04;;;;;;;24.75;14.57;;;;;;;;;;10323129;28;20420;-84
2023/03/08 17:23:08;;;;;;;26.03;15.03;;;;;;;;;;10323263;28;20494;-84
2023/03/08 17:28:11;;;;;;;24.42;15.30;;;;;;;;;;10321922;28;20425;-83
2023/03/08 17:33:12;;;;;;;28.48;17.00;;;;;;;;;;10324457;28;20559;-83
2023/03/08 17:38:15;;;;;;;26.25;16.00;;;;;;;;;;10324731;28;20443;-84
2023/03/08 17:43:18;;;;;;;25.53;15.13;;;;;;;;;;10321611;28;20420;-83
2023/03/08 17:48:20;;;;;;;34.67;18.33;;;;;;;;;;10323286;28;20880;-84
2023/03/08 17:53:23;;;;;;;27.98;16.67;;;;;;;;;;10322879;28;20510;-83
2023/03/08 17:58:25;;;;;;;26.88;17.05;;;;;;;;;;10317033;28;20868;-83
2023/03/08 18:03:27;;;;;;;24.30;15.85;;;;;;;;;;10321899;28;20411;-83
2023/03/08 18:08:30;;;;;;;25.50;16.23;;;;;;;;;;10319855;28;20425;-83
2023/03/08 18:13:32;;;;;;;24.83;15.90;;;;;;;;;;10317916;28;20432;-85
2023/03/08 18:18:34;;;;;;;26.23;16.93;;;;;;;;;;10314401;28;20895;-83
2023/03/08 18:23:38;;;;;;;24.85;16.02;;;;;;;;;;10321026;28;20424;-84
2023/03/08 18:28:40;;;;;;;23.70;15.67;;;;;;;;;;10309559;28;20511;-84
2023/03/08 18:33:42;;;;;;;24.33;14.23;;;;;;;;;;10312515;28;20526;-84
2023/03/08 18:38:45;;;;;;;20.55;13.60;;;;;;;;;;10317182;28;20519;-84
2023/03/08 18:43:47;;;;;;;20.75;13.98;;;;;;;;;;10311707;28;20420;-84
2023/03/08 18:48:50;;;;;;;29.57;18.73;;;;;;;;;;10315880;28;20443;-84
2023/03/08 18:53:53;;;;;;;31.33;20.38;;;;;;;;;;10305999;28;20872;-85
2023/03/08 18:58:57;;;;;;;31.98;19.33;;;;;;;;;;10310269;28;20959;-84
2023/03/08 19:04:02;;;;;;;29.67;18.63;;;;;;;;;;10317481;28;20843;-84
2023/03/08 19:09:13;;;;;;;32.28;20.63;;;;;;;;;;10316727;28;20429;-84
2023/03/08 19:14:16;;;;;;;29.83;18.53;;;;;;;;;;10312982;28;20513;-84
2023/03/08 19:19:18;;;;;;;34.25;20.98;;;;;;;;;;10309846;28;20784;-84
2023/03/08 19:24:22;;;;;;;34.30;22.37;;;;;;;;;;10310141;28;20453;-84
2023/03/08 19:29:26;;;;;;;26.45;17.95;;;;;;;;;;10314536;28;20435;-85
2023/03/08 19:34:30;;;;;;;33.70;21.20;;;;;;;;;;10303368;28;20521;-82
2023/03/08 19:39:35;;;;;;;35.50;21.52;;;;;;;;;;10309177;28;20432;-84
2023/03/08 19:44:37;;;;;;;30.52;19.05;;;;;;;;;;10303261;28;20538;-84
2023/03/08 19:49:39;;;;;;;28.30;19.73;;;;;;;;;;10309853;28;20424;-84
2023/03/08 19:54:44;;;;;;;33.17;20.43;;;;;;;;;;10315913;28;20900;-84
2023/03/08 19:59:46;;;;;;;28.63;18.83;;;;;;;;;;10303450;28;20493;-84
2023/03/08 20:04:47;;;;;;;28.25;19.05;;;;;;;;;;10301009;28;20509;-84
2023/03/08 20:09:53;;;;;;;28.47;18.57;;;;;;;;;;10304356;28;20437;-84
2023/03/08 20:14:56;;;;;;;28.23;17.10;;;;;;;;;;10313977;28;20959;-85
2023/03/08 20:19:58;;;;;;;27.58;16.52;;;;;;;;;;10304346;28;20864;-84
2023/03/08 20:25:01;;;;;;;27.63;17.52;;;;;;;;;;10319810;28;20416;-84
2023/03/08 20:30:03;;;;;;;26.90;17.48;;;;;;;;;;10319420;28;20529;-85
2023/03/08 20:35:06;;;;;;;31.48;18.05;;;;;;;;;;10309013;28;20525;-86
2023/03/08 20:40:12;;;;;;;26.23;17.73;;;;;;;;;;10308756;28;20577;-83
2023/03/08 20:45:14;;;;;;;30.10;18.90;;;;;;;;;;10309983;28;20993;-86
2023/03/08 20:50:16;;;;;;;30.87;20.10;;;;;;;;;;10322726;28;20424;-85
2023/03/08 20:55:20;;;;;;;26.65;18.67;;;;;;;;;;10320397;28;20412;-85
2023/03/08 21:00:24;;;;;;;29.33;19.63;;;;;;;;;;10321572;28;20604;-86
2023/03/08 21:05:26;;;;;;;28.98;19.20;;;;;;;;;;10311786;28;20822;-85
2023/03/08 21:10:31;;;;;;;29.80;20.30;;;;;;;;;;10320021;28;20432;-85
2023/03/08 21:15:33;;;;;;;30.67;20.15;;;;;;;;;;10321861;28;20455;-84
2023/03/08 21:20:36;;;;;;;31.17;20.38;;;;;;;;;;10317403;28;20822;-85
2023/03/08 21:25:40;;;;;;;30.20;19.50;;;;;;;;;;10318570;28;20429;-85
2023/03/08 21:30:42;;;;;;;30.67;19.67;;;;;;;;;;10314629;28;20432;-85
2023/03/08 21:35:44;;;;;;;31.58;19.65;;;;;;;;;;10313443;28;20780;-83
2023/03/08 21:40:47;;;;;;;30.33;18.85;;;;;;;;;;10316806;28;20444;-85
2023/03/08 21:45:49;;;;;;;29.25;19.50;;;;;;;;;;10324082;28;20421;-85
2023/03/08 21:50:51;;;;;;;29.33;19.77;;;;;;;;;;10323341;28;20468;-85
2023/03/08 21:55:54;;;;;;;29.85;19.60;;;;;;;;;;10323052;28;20420;-85
2023/03/08 22:00:58;;;;;;;30.77;19.88;;;;;;;;;;10316229;28;21601;-85
2023/03/08 22:06:00;;;;;;;30.60;19.57;;;;;;;;;;10318196;28;20439;-85
2023/03/08 22:11:04;;;;;;;30.13;19.57;;;;;;;;;;10322445;28;20439;-84
2023/03/08 22:16:07;;;;;;;31.47;19.40;;;;;;;;;;10319562;28;21716;-84
2023/03/08 22:21:08;;;;;;;32.13;19.87;;;;;;;;;;10313851;28;20805;-85
2023/03/08 22:26:12;;;;;;;27.73;19.23;;;;;;;;;;10322044;28;20421;-85
2023/03/08 22:31:15;;;;;;;28.65;18.77;;;;;;;;;;10322089;28;20447;-85
2023/03/08 22:36:19;;;;;;;27.70;18.00;;;;;;;;;;10321067;28;20422;-85
2023/03/08 22:41:24;;;;;;;26.55;18.38;;;;;;;;;;10325550;28;20528;-85
2023/03/08 22:46:27;;;;;;;27.43;17.20;;;;;;;;;;10324118;28;20895;-85
2023/03/08 22:51:29;;;;;;;23.45;15.70;;;;;;;;;;10323237;28;20429;-85
2023/03/08 22:56:33;;;;;;;25.13;15.48;;;;;;;;;;10326101;28;20483;-85
2023/03/08 23:01:34;;;;;;;24.60;17.05;;;;;;;;;;10325914;28;20456;-85
2023/03/08 23:06:37;;;;;;;25.45;17.17;;;;;;;;;;10326247;28;20411;-86
2023/03/08 23:11:41;;;;;;;25.20;17.27;;;;;;;;;;10326213;28;20463;-84
2023/03/08 23:16:44;;;;;;;27.13;17.07;;;;;;;;;;10325366;28;20408;-84
2023/03/08 23:21:47;;;;;;;29.10;17.48;;;;;;;;;;10324579;28;20412;-83
2023/03/08 23:26:50;;;;;;;26.70;17.20;;;;;;;;;;10322666;28;20959;-83
2023/03/08 23:31:52;;;;;;;29.33;18.92;;;;;;;;;;10320622;28;20420;-84
2023/03/08 23:36:54;;;;;;;29.50;19.10;;;;;;;;;;10318168;28;20444;-84
2023/03/08 23:41:57;;;;;;;31.38;19.63;;;;;;;;;;10327465;28;20847;-84
2023/03/08 23:46:59;;;;;;;30.03;20.77;;;;;;;;;;10325648;28;20426;-83
2023/03/08 23:52:01;;;;;;;33.45;20.90;;;;;;;;;;10324518;28;20515;-83
2023/03/08 23:57:04;;;;;;;30.87;20.67;;;;;;;;;;10324318;28;20445;-84
